NCAR-RAP Real-Time Weather Data

Output produced by METARs form (25 August 2019  23:47 UTC)
found at http://weather.rap.ucar.edu/surface/
 
RJKA 252300Z 20004KT 9999 FEW015 SCT/// 30/26 Q1012
 
ROAH 252330Z 14006KT 100V170 9999 FEW020 30/25 Q1012 RMK 1CU020 A2988
 
RODN 252256Z AUTO 14004KT 10SM FEW047 30/25 A2990 RMK AO2 SLP130 T02980246
 
ROIG 252300Z 15010KT 9999 FEW013 29/27 Q1010
 
ROMY 252300Z 15009KT 9999 SCT015 28/25 Q1011
 
RORS 252300Z 16012KT 9999 FEW015 29/25 Q1011